<?xml version="1.0" encoding="UTF-8" standalone="no" ?>
<gpx xmlns="http://www.topografix.com/GPX/1/1" xmlns:xsi="http://www.w3.org/2001/XMLSchema-instance" xsi:schemaLocation="http://www.topografix.com/GPX/1/1 http://www.topografix.com/GPX/1/1/gpx.xsd" version="1.1" creator="VisuGPX - https://www.visugpx.com">
  <metadata>
    <name>Raid Bulles : Barsuraubois</name>
    <desc><![CDATA[parcours RAID BULLES EN CHAMPAGNE 375KM]]></desc>
  </metadata>
  <wpt lat="48.1461" lon="4.76948">
    <ele>206.1</ele>
    <name><![CDATA[Ravitaillement chaud]]></name>
  </wpt>
  <wpt lat="48.14803" lon="4.83346">
    <ele>208.6</ele>
    <name><![CDATA[Départ réel]]></name>
  </wpt>
  <wpt lat="48.13585" lon="4.66919">
    <ele>253.9</ele>
    <name><![CDATA[Gravel début section]]></name>
  </wpt>
  <wpt lat="48.21735" lon="4.71382">
    <ele>168.8</ele>
  </wpt>
  <trk>
    <name><![CDATA[32. Circuit de Bar sur Aube Gaston Bachelard-17237890]]></name>
    <extensions>
      <line xmlns="http://www.topografix.com/GPX/gpx_style/0/2">
        <color>FF0000</color>
        <width>4</width>
      </line>
    </extensions>
    <trkseg>
      <trkpt lat="48.21939" lon="4.69876">
        <ele>311</ele>
        <time>2024-07-03T07:39:48Z</time>
      </trkpt>
      <trkpt lat="48.21889" lon="4.69692">
        <ele>313</ele>
        <time>2024-07-03T07:40:12Z</time>
      </trkpt>
      <trkpt lat="48.21877" lon="4.69694">
        <ele>314</ele>
        <time>2024-07-03T07:40:14Z</time>
      </trkpt>
      <trkpt lat="48.21864" lon="4.69691">
        <ele>315</ele>
        <time>2024-07-03T07:40:16Z</time>
      </trkpt>
      <trkpt lat="48.21835" lon="4.69675">
        <ele>316</ele>
        <time>2024-07-03T07:40:22Z</time>
      </trkpt>
      <trkpt lat="48.21814" lon="4.6967">
        <ele>317</ele>
        <time>2024-07-03T07:40:25Z</time>
      </trkpt>
      <trkpt lat="48.21781" lon="4.69671">
        <ele>319</ele>
        <time>2024-07-03T07:40:31Z</time>
      </trkpt>
      <trkpt lat="48.2168" lon="4.69652">
        <ele>320</ele>
        <time>2024-07-03T07:40:49Z</time>
      </trkpt>
      <trkpt lat="48.21636" lon="4.69648">
        <ele>319</ele>
        <time>2024-07-03T07:40:57Z</time>
      </trkpt>
      <trkpt lat="48.21614" lon="4.69649">
        <ele>319</ele>
        <time>2024-07-03T07:41:01Z</time>
      </trkpt>
      <trkpt lat="48.2158" lon="4.69655">
        <ele>319</ele>
        <time>2024-07-03T07:41:07Z</time>
      </trkpt>
      <trkpt lat="48.21555" lon="4.69664">
        <ele>319</ele>
        <time>2024-07-03T07:41:12Z</time>
      </trkpt>
      <trkpt lat="48.2153" lon="4.69678">
        <ele>319</ele>
        <time>2024-07-03T07:41:16Z</time>
      </trkpt>
      <trkpt lat="48.21512" lon="4.69692">
        <ele>319</ele>
        <time>2024-07-03T07:41:20Z</time>
      </trkpt>
      <trkpt lat="48.21443" lon="4.69776">
        <ele>320</ele>
        <time>2024-07-03T07:41:36Z</time>
      </trkpt>
      <trkpt lat="48.21419" lon="4.69801">
        <ele>322</ele>
        <time>2024-07-03T07:41:41Z</time>
      </trkpt>
      <trkpt lat="48.21383" lon="4.69827">
        <ele>324</ele>
        <time>2024-07-03T07:41:48Z</time>
      </trkpt>
      <trkpt lat="48.21347" lon="4.69839">
        <ele>324</ele>
        <time>2024-07-03T07:41:55Z</time>
      </trkpt>
      <trkpt lat="48.21307" lon="4.69844">
        <ele>325</ele>
        <time>2024-07-03T07:42:02Z</time>
      </trkpt>
      <trkpt lat="48.21291" lon="4.69843">
        <ele>325</ele>
        <time>2024-07-03T07:42:05Z</time>
      </trkpt>
      <trkpt lat="48.21269" lon="4.69833">
        <ele>326</ele>
        <time>2024-07-03T07:42:09Z</time>
      </trkpt>
      <trkpt lat="48.21243" lon="4.6984">
        <ele>328</ele>
        <time>2024-07-03T07:42:14Z</time>
      </trkpt>
      <trkpt lat="48.21216" lon="4.69855">
        <ele>330</ele>
        <time>2024-07-03T07:42:19Z</time>
      </trkpt>
      <trkpt lat="48.2118" lon="4.6987">
        <ele>332</ele>
        <time>2024-07-03T07:42:25Z</time>
      </trkpt>
      <trkpt lat="48.21155" lon="4.69873">
        <ele>333</ele>
        <time>2024-07-03T07:42:30Z</time>
      </trkpt>
      <trkpt lat="48.21123" lon="4.69872">
        <ele>335</ele>
        <time>2024-07-03T07:42:35Z</time>
      </trkpt>
      <trkpt lat="48.21052" lon="4.6986">
        <ele>337</ele>
        <time>2024-07-03T07:42:48Z</time>
      </trkpt>
      <trkpt lat="48.21015" lon="4.69851">
        <ele>337</ele>
        <time>2024-07-03T07:42:55Z</time>
      </trkpt>
      <trkpt lat="48.20973" lon="4.69851">
        <ele>338</ele>
        <time>2024-07-03T07:43:02Z</time>
      </trkpt>
      <trkpt lat="48.20949" lon="4.69854">
        <ele>338</ele>
        <time>2024-07-03T07:43:07Z</time>
      </trkpt>
      <trkpt lat="48.20922" lon="4.6986">
        <ele>337</ele>
        <time>2024-07-03T07:43:11Z</time>
      </trkpt>
      <trkpt lat="48.20837" lon="4.69889">
        <ele>341</ele>
        <time>2024-07-03T07:43:27Z</time>
      </trkpt>
      <trkpt lat="48.20825" lon="4.69891">
        <ele>342</ele>
        <time>2024-07-03T07:43:29Z</time>
      </trkpt>
      <trkpt lat="48.20795" lon="4.69903">
        <ele>342</ele>
        <time>2024-07-03T07:43:35Z</time>
      </trkpt>
      <trkpt lat="48.2078" lon="4.69903">
        <ele>342</ele>
        <time>2024-07-03T07:43:37Z</time>
      </trkpt>
      <trkpt lat="48.20766" lon="4.69898">
        <ele>343</ele>
        <time>2024-07-03T07:43:40Z</time>
      </trkpt>
      <trkpt lat="48.20752" lon="4.69902">
        <ele>343</ele>
        <time>2024-07-03T07:43:42Z</time>
      </trkpt>
      <trkpt lat="48.20747" lon="4.69904">
        <ele>343</ele>
        <time>2024-07-03T07:43:43Z</time>
      </trkpt>
      <trkpt lat="48.20736" lon="4.69915">
        <ele>342</ele>
        <time>2024-07-03T07:43:46Z</time>
      </trkpt>
      <trkpt lat="48.20728" lon="4.69927">
        <ele>342</ele>
        <time>2024-07-03T07:43:48Z</time>
      </trkpt>
      <trkpt lat="48.20722" lon="4.69929">
        <ele>342</ele>
        <time>2024-07-03T07:43:49Z</time>
      </trkpt>
      <trkpt lat="48.20692" lon="4.6995">
        <ele>341</ele>
        <time>2024-07-03T07:43:55Z</time>
      </trkpt>
      <trkpt lat="48.20666" lon="4.69955">
        <ele>340</ele>
        <time>2024-07-03T07:43:59Z</time>
      </trkpt>
      <trkpt lat="48.2054" lon="4.69956">
        <ele>339</ele>
        <time>2024-07-03T07:44:22Z</time>
      </trkpt>
      <trkpt lat="48.20481" lon="4.6996">
        <ele>340</ele>
        <time>2024-07-03T07:44:32Z</time>
      </trkpt>
      <trkpt lat="48.20387" lon="4.69953">
        <ele>343</ele>
        <time>2024-07-03T07:44:49Z</time>
      </trkpt>
      <trkpt lat="48.20316" lon="4.69932">
        <ele>345</ele>
        <time>2024-07-03T07:45:02Z</time>
      </trkpt>
      <trkpt lat="48.20227" lon="4.69901">
        <ele>344</ele>
        <time>2024-07-03T07:45:18Z</time>
      </trkpt>
      <trkpt lat="48.19996" lon="4.69868">
        <ele>349</ele>
        <time>2024-07-03T07:45:59Z</time>
      </trkpt>
      <trkpt lat="48.19957" lon="4.69868">
        <ele>350</ele>
        <time>2024-07-03T07:46:06Z</time>
      </trkpt>
      <trkpt lat="48.19843" lon="4.69894">
        <ele>349</ele>
        <time>2024-07-03T07:46:27Z</time>
      </trkpt>
      <trkpt lat="48.19686" lon="4.69907">
        <ele>343</ele>
        <time>2024-07-03T07:46:55Z</time>
      </trkpt>
      <trkpt lat="48.19586" lon="4.69956">
        <ele>343</ele>
        <time>2024-07-03T07:47:14Z</time>
      </trkpt>
      <trkpt lat="48.19509" lon="4.69978">
        <ele>341</ele>
        <time>2024-07-03T07:47:28Z</time>
      </trkpt>
      <trkpt lat="48.19388" lon="4.70056">
        <ele>338</ele>
        <time>2024-07-03T07:47:51Z</time>
      </trkpt>
      <trkpt lat="48.19348" lon="4.70073">
        <ele>337</ele>
        <time>2024-07-03T07:47:58Z</time>
      </trkpt>
      <trkpt lat="48.19323" lon="4.70078">
        <ele>337</ele>
        <time>2024-07-03T07:48:03Z</time>
      </trkpt>
      <trkpt lat="48.19297" lon="4.69941">
        <ele>335</ele>
        <time>2024-07-03T07:48:20Z</time>
      </trkpt>
      <trkpt lat="48.1927" lon="4.69823">
        <ele>330</ele>
        <time>2024-07-03T07:48:35Z</time>
      </trkpt>
      <trkpt lat="48.19253" lon="4.69772">
        <ele>326</ele>
        <time>2024-07-03T07:48:41Z</time>
      </trkpt>
      <trkpt lat="48.1923" lon="4.69729">
        <ele>324</ele>
        <time>2024-07-03T07:48:48Z</time>
      </trkpt>
      <trkpt lat="48.19179" lon="4.69646">
        <ele>314</ele>
        <time>2024-07-03T07:49:01Z</time>
      </trkpt>
      <trkpt lat="48.19075" lon="4.69492">
        <ele>291</ele>
        <time>2024-07-03T07:49:27Z</time>
      </trkpt>
      <trkpt lat="48.19087" lon="4.69394">
        <ele>287</ele>
        <time>2024-07-03T07:49:39Z</time>
      </trkpt>
      <trkpt lat="48.19102" lon="4.69338">
        <ele>284</ele>
        <time>2024-07-03T07:49:46Z</time>
      </trkpt>
      <trkpt lat="48.1905" lon="4.69318">
        <ele>288</ele>
        <time>2024-07-03T07:49:56Z</time>
      </trkpt>
      <trkpt lat="48.19012" lon="4.69309">
        <ele>294</ele>
        <time>2024-07-03T07:50:03Z</time>
      </trkpt>
      <trkpt lat="48.18974" lon="4.69285">
        <ele>298</ele>
        <time>2024-07-03T07:50:10Z</time>
      </trkpt>
      <trkpt lat="48.18924" lon="4.69243">
        <ele>299</ele>
        <time>2024-07-03T07:50:20Z</time>
      </trkpt>
      <trkpt lat="48.18904" lon="4.69198">
        <ele>305</ele>
        <time>2024-07-03T07:50:27Z</time>
      </trkpt>
      <trkpt lat="48.18897" lon="4.69083">
        <ele>315</ele>
        <time>2024-07-03T07:50:40Z</time>
      </trkpt>
      <trkpt lat="48.18868" lon="4.68914">
        <ele>326</ele>
        <time>2024-07-03T07:51:01Z</time>
      </trkpt>
      <trkpt lat="48.18857" lon="4.6881">
        <ele>328</ele>
        <time>2024-07-03T07:51:13Z</time>
      </trkpt>
      <trkpt lat="48.18845" lon="4.68741">
        <ele>333</ele>
        <time>2024-07-03T07:51:22Z</time>
      </trkpt>
      <trkpt lat="48.18805" lon="4.6859">
        <ele>344</ele>
        <time>2024-07-03T07:51:41Z</time>
      </trkpt>
      <trkpt lat="48.18797" lon="4.68523">
        <ele>347</ele>
        <time>2024-07-03T07:51:49Z</time>
      </trkpt>
      <trkpt lat="48.18801" lon="4.68501">
        <ele>347</ele>
        <time>2024-07-03T07:51:52Z</time>
      </trkpt>
      <trkpt lat="48.1881" lon="4.68472">
        <ele>347</ele>
        <time>2024-07-03T07:51:56Z</time>
      </trkpt>
      <trkpt lat="48.18832" lon="4.68446">
        <ele>346</ele>
        <time>2024-07-03T07:52:01Z</time>
      </trkpt>
      <trkpt lat="48.18802" lon="4.68314">
        <ele>344</ele>
        <time>2024-07-03T07:52:17Z</time>
      </trkpt>
      <trkpt lat="48.18898" lon="4.68199">
        <ele>341</ele>
        <time>2024-07-03T07:52:39Z</time>
      </trkpt>
      <trkpt lat="48.18921" lon="4.68162">
        <ele>340</ele>
        <time>2024-07-03T07:52:45Z</time>
      </trkpt>
      <trkpt lat="48.18852" lon="4.68017">
        <ele>332</ele>
        <time>2024-07-03T07:53:06Z</time>
      </trkpt>
      <trkpt lat="48.18784" lon="4.67939">
        <ele>328</ele>
        <time>2024-07-03T07:53:22Z</time>
      </trkpt>
      <trkpt lat="48.18685" lon="4.67681">
        <ele>325</ele>
        <time>2024-07-03T07:53:57Z</time>
      </trkpt>
      <trkpt lat="48.18755" lon="4.67456">
        <ele>306</ele>
        <time>2024-07-03T07:54:26Z</time>
      </trkpt>
      <trkpt lat="48.18764" lon="4.67329">
        <ele>287</ele>
        <time>2024-07-03T07:54:41Z</time>
      </trkpt>
      <trkpt lat="48.18659" lon="4.66879">
        <ele>249</ele>
        <time>2024-07-03T07:55:38Z</time>
      </trkpt>
      <trkpt lat="48.18657" lon="4.66881">
        <ele>249</ele>
        <time>2024-07-03T07:55:38Z</time>
      </trkpt>
      <trkpt lat="48.18613" lon="4.66805">
        <ele>246</ele>
        <time>2024-07-03T07:55:50Z</time>
      </trkpt>
      <trkpt lat="48.18601" lon="4.66778">
        <ele>245</ele>
        <time>2024-07-03T07:55:54Z</time>
      </trkpt>
      <trkpt lat="48.18593" lon="4.66746">
        <ele>243</ele>
        <time>2024-07-03T07:55:58Z</time>
      </trkpt>
      <trkpt lat="48.18542" lon="4.66768">
        <ele>243</ele>
        <time>2024-07-03T07:56:08Z</time>
      </trkpt>
      <trkpt lat="48.1847" lon="4.66777">
        <ele>244</ele>
        <time>2024-07-03T07:56:21Z</time>
      </trkpt>
      <trkpt lat="48.18411" lon="4.66764">
        <ele>243</ele>
        <time>2024-07-03T07:56:31Z</time>
      </trkpt>
      <trkpt lat="48.1841" lon="4.66756">
        <ele>242</ele>
        <time>2024-07-03T07:56:32Z</time>
      </trkpt>
      <trkpt lat="48.18385" lon="4.66734">
        <ele>240</ele>
        <time>2024-07-03T07:56:37Z</time>
      </trkpt>
      <trkpt lat="48.18361" lon="4.6665">
        <ele>239</ele>
        <time>2024-07-03T07:56:48Z</time>
      </trkpt>
      <trkpt lat="48.18361" lon="4.66641">
        <ele>240</ele>
        <time>2024-07-03T07:56:49Z</time>
      </trkpt>
      <trkpt lat="48.18376" lon="4.66604">
        <ele>239</ele>
        <time>2024-07-03T07:56:54Z</time>
      </trkpt>
      <trkpt lat="48.18378" lon="4.66594">
        <ele>239</ele>
        <time>2024-07-03T07:56:56Z</time>
      </trkpt>
      <trkpt lat="48.18378" lon="4.66573">
        <ele>239</ele>
        <time>2024-07-03T07:56:58Z</time>
      </trkpt>
      <trkpt lat="48.18369" lon="4.66537">
        <ele>241</ele>
        <time>2024-07-03T07:57:03Z</time>
      </trkpt>
      <trkpt lat="48.18325" lon="4.66529">
        <ele>245</ele>
        <time>2024-07-03T07:57:11Z</time>
      </trkpt>
      <trkpt lat="48.18279" lon="4.665">
        <ele>248</ele>
        <time>2024-07-03T07:57:19Z</time>
      </trkpt>
      <trkpt lat="48.18205" lon="4.66448">
        <ele>252</ele>
        <time>2024-07-03T07:57:34Z</time>
      </trkpt>
      <trkpt lat="48.18115" lon="4.66376">
        <ele>262</ele>
        <time>2024-07-03T07:57:52Z</time>
      </trkpt>
      <trkpt lat="48.18101" lon="4.66367">
        <ele>265</ele>
        <time>2024-07-03T07:57:55Z</time>
      </trkpt>
      <trkpt lat="48.18058" lon="4.66329">
        <ele>274</ele>
        <time>2024-07-03T07:58:04Z</time>
      </trkpt>
      <trkpt lat="48.18019" lon="4.66327">
        <ele>281</ele>
        <time>2024-07-03T07:58:11Z</time>
      </trkpt>
      <trkpt lat="48.17997" lon="4.6632">
        <ele>285</ele>
        <time>2024-07-03T07:58:15Z</time>
      </trkpt>
      <trkpt lat="48.17931" lon="4.66267">
        <ele>298</ele>
        <time>2024-07-03T07:58:28Z</time>
      </trkpt>
      <trkpt lat="48.17917" lon="4.66259">
        <ele>301</ele>
        <time>2024-07-03T07:58:31Z</time>
      </trkpt>
      <trkpt lat="48.17895" lon="4.66252">
        <ele>304</ele>
        <time>2024-07-03T07:58:35Z</time>
      </trkpt>
      <trkpt lat="48.17872" lon="4.66236">
        <ele>306</ele>
        <time>2024-07-03T07:58:39Z</time>
      </trkpt>
      <trkpt lat="48.17812" lon="4.66159">
        <ele>315</ele>
        <time>2024-07-03T07:58:53Z</time>
      </trkpt>
      <trkpt lat="48.17736" lon="4.66051">
        <ele>322</ele>
        <time>2024-07-03T07:59:12Z</time>
      </trkpt>
      <trkpt lat="48.17557" lon="4.65853">
        <ele>321</ele>
        <time>2024-07-03T07:59:51Z</time>
      </trkpt>
      <trkpt lat="48.17546" lon="4.65837">
        <ele>320</ele>
        <time>2024-07-03T07:59:54Z</time>
      </trkpt>
      <trkpt lat="48.1753" lon="4.65809">
        <ele>319</ele>
        <time>2024-07-03T07:59:58Z</time>
      </trkpt>
      <trkpt lat="48.17502" lon="4.65741">
        <ele>318</ele>
        <time>2024-07-03T08:00:08Z</time>
      </trkpt>
      <trkpt lat="48.17479" lon="4.657">
        <ele>315</ele>
        <time>2024-07-03T08:00:14Z</time>
      </trkpt>
      <trkpt lat="48.17454" lon="4.65646">
        <ele>312</ele>
        <time>2024-07-03T08:00:22Z</time>
      </trkpt>
      <trkpt lat="48.17447" lon="4.65634">
        <ele>311</ele>
        <time>2024-07-03T08:00:24Z</time>
      </trkpt>
      <trkpt lat="48.17427" lon="4.65611">
        <ele>308</ele>
        <time>2024-07-03T08:00:28Z</time>
      </trkpt>
      <trkpt lat="48.1741" lon="4.65582">
        <ele>305</ele>
        <time>2024-07-03T08:00:33Z</time>
      </trkpt>
      <trkpt lat="48.17386" lon="4.65525">
        <ele>297</ele>
        <time>2024-07-03T08:00:41Z</time>
      </trkpt>
      <trkpt lat="48.17376" lon="4.65507">
        <ele>294</ele>
        <time>2024-07-03T08:00:44Z</time>
      </trkpt>
      <trkpt lat="48.17332" lon="4.65463">
        <ele>282</ele>
        <time>2024-07-03T08:00:53Z</time>
      </trkpt>
      <trkpt lat="48.17229" lon="4.65375">
        <ele>264</ele>
        <time>2024-07-03T08:01:14Z</time>
      </trkpt>
      <trkpt lat="48.17197" lon="4.65345">
        <ele>259</ele>
        <time>2024-07-03T08:01:21Z</time>
      </trkpt>
      <trkpt lat="48.1717" lon="4.65328">
        <ele>255</ele>
        <time>2024-07-03T08:01:26Z</time>
      </trkpt>
      <trkpt lat="48.17125" lon="4.65307">
        <ele>247</ele>
        <time>2024-07-03T08:01:35Z</time>
      </trkpt>
      <trkpt lat="48.17086" lon="4.65275">
        <ele>240</ele>
        <time>2024-07-03T08:01:43Z</time>
      </trkpt>
      <trkpt lat="48.17056" lon="4.65244">
        <ele>235</ele>
        <time>2024-07-03T08:01:49Z</time>
      </trkpt>
      <trkpt lat="48.17052" lon="4.65237">
        <ele>234</ele>
        <time>2024-07-03T08:01:50Z</time>
      </trkpt>
      <trkpt lat="48.17012" lon="4.65242">
        <ele>230</ele>
        <time>2024-07-03T08:01:57Z</time>
      </trkpt>
      <trkpt lat="48.17013" lon="4.65161">
        <ele>228</ele>
        <time>2024-07-03T08:02:07Z</time>
      </trkpt>
      <trkpt lat="48.17021" lon="4.65058">
        <ele>226</ele>
        <time>2024-07-03T08:02:19Z</time>
      </trkpt>
      <trkpt lat="48.17024" lon="4.65045">
        <ele>226</ele>
        <time>2024-07-03T08:02:21Z</time>
      </trkpt>
      <trkpt lat="48.17014" lon="4.65034">
        <ele>225</ele>
        <time>2024-07-03T08:02:23Z</time>
      </trkpt>
      <trkpt lat="48.17007" lon="4.64996">
        <ele>224</ele>
        <time>2024-07-03T08:02:28Z</time>
      </trkpt>
      <trkpt lat="48.16994" lon="4.64976">
        <ele>223</ele>
        <time>2024-07-03T08:02:31Z</time>
      </trkpt>
      <trkpt lat="48.16937" lon="4.64926">
        <ele>223</ele>
        <time>2024-07-03T08:02:43Z</time>
      </trkpt>
      <trkpt lat="48.16907" lon="4.64888">
        <ele>224</ele>
        <time>2024-07-03T08:02:50Z</time>
      </trkpt>
      <trkpt lat="48.16897" lon="4.64871">
        <ele>225</ele>
        <time>2024-07-03T08:02:52Z</time>
      </trkpt>
      <trkpt lat="48.16863" lon="4.64793">
        <ele>226</ele>
        <time>2024-07-03T08:03:04Z</time>
      </trkpt>
      <trkpt lat="48.16842" lon="4.64758">
        <ele>226</ele>
        <time>2024-07-03T08:03:09Z</time>
      </trkpt>
      <trkpt lat="48.16791" lon="4.64684">
        <ele>228</ele>
        <time>2024-07-03T08:03:22Z</time>
      </trkpt>
      <trkpt lat="48.16781" lon="4.64655">
        <ele>228</ele>
        <time>2024-07-03T08:03:26Z</time>
      </trkpt>
      <trkpt lat="48.16777" lon="4.64626">
        <ele>229</ele>
        <time>2024-07-03T08:03:29Z</time>
      </trkpt>
      <trkpt lat="48.16774" lon="4.64554">
        <ele>229</ele>
        <time>2024-07-03T08:03:38Z</time>
      </trkpt>
      <trkpt lat="48.16783" lon="4.6445">
        <ele>232</ele>
        <time>2024-07-03T08:03:50Z</time>
      </trkpt>
      <trkpt lat="48.16793" lon="4.64394">
        <ele>233</ele>
        <time>2024-07-03T08:03:57Z</time>
      </trkpt>
      <trkpt lat="48.16812" lon="4.64318">
        <ele>233</ele>
        <time>2024-07-03T08:04:07Z</time>
      </trkpt>
      <trkpt lat="48.16817" lon="4.6429">
        <ele>232</ele>
        <time>2024-07-03T08:04:10Z</time>
      </trkpt>
      <trkpt lat="48.16819" lon="4.64258">
        <ele>231</ele>
        <time>2024-07-03T08:04:14Z</time>
      </trkpt>
      <trkpt lat="48.16814" lon="4.64209">
        <ele>232</ele>
        <time>2024-07-03T08:04:20Z</time>
      </trkpt>
      <trkpt lat="48.16808" lon="4.64185">
        <ele>233</ele>
        <time>2024-07-03T08:04:23Z</time>
      </trkpt>
      <trkpt lat="48.16793" lon="4.64145">
        <ele>234</ele>
        <time>2024-07-03T08:04:28Z</time>
      </trkpt>
      <trkpt lat="48.16759" lon="4.64072">
        <ele>234</ele>
        <time>2024-07-03T08:04:39Z</time>
      </trkpt>
      <trkpt lat="48.16743" lon="4.64023">
        <ele>234</ele>
        <time>2024-07-03T08:04:45Z</time>
      </trkpt>
      <trkpt lat="48.16735" lon="4.6398">
        <ele>235</ele>
        <time>2024-07-03T08:04:51Z</time>
      </trkpt>
      <trkpt lat="48.16727" lon="4.63901">
        <ele>238</ele>
        <time>2024-07-03T08:05:00Z</time>
      </trkpt>
      <trkpt lat="48.16725" lon="4.63855">
        <ele>241</ele>
        <time>2024-07-03T08:05:06Z</time>
      </trkpt>
      <trkpt lat="48.1673" lon="4.63797">
        <ele>244</ele>
        <time>2024-07-03T08:05:13Z</time>
      </trkpt>
      <trkpt lat="48.16769" lon="4.63594">
        <ele>249</ele>
        <time>2024-07-03T08:05:38Z</time>
      </trkpt>
      <trkpt lat="48.16775" lon="4.6354">
        <ele>249</ele>
        <time>2024-07-03T08:05:44Z</time>
      </trkpt>
      <trkpt lat="48.1678" lon="4.63414">
        <ele>246</ele>
        <time>2024-07-03T08:05:59Z</time>
      </trkpt>
      <trkpt lat="48.16772" lon="4.63269">
        <ele>237</ele>
        <time>2024-07-03T08:06:16Z</time>
      </trkpt>
      <trkpt lat="48.16765" lon="4.63188">
        <ele>232</ele>
        <time>2024-07-03T08:06:26Z</time>
      </trkpt>
      <trkpt lat="48.16793" lon="4.63092">
        <ele>228</ele>
        <time>2024-07-03T08:06:38Z</time>
      </trkpt>
      <trkpt lat="48.16803" lon="4.63047">
        <ele>226</ele>
        <time>2024-07-03T08:06:44Z</time>
      </trkpt>
      <trkpt lat="48.16816" lon="4.62956">
        <ele>224</ele>
        <time>2024-07-03T08:06:55Z</time>
      </trkpt>
      <trkpt lat="48.16849" lon="4.62797">
        <ele>223</ele>
        <time>2024-07-03T08:07:15Z</time>
      </trkpt>
      <trkpt lat="48.16852" lon="4.62771">
        <ele>223</ele>
        <time>2024-07-03T08:07:18Z</time>
      </trkpt>
      <trkpt lat="48.16856" lon="4.62701">
        <ele>221</ele>
        <time>2024-07-03T08:07:26Z</time>
      </trkpt>
      <trkpt lat="48.16856" lon="4.62655">
        <ele>219</ele>
        <time>2024-07-03T08:07:32Z</time>
      </trkpt>
      <trkpt lat="48.16844" lon="4.62532">
        <ele>215</ele>
        <time>2024-07-03T08:07:47Z</time>
      </trkpt>
      <trkpt lat="48.16842" lon="4.62446">
        <ele>215</ele>
        <time>2024-07-03T08:07:57Z</time>
      </trkpt>
      <trkpt lat="48.16864" lon="4.62428">
        <ele>214</ele>
        <time>2024-07-03T08:08:01Z</time>
      </trkpt>
      <trkpt lat="48.16874" lon="4.62415">
        <ele>213</ele>
        <time>2024-07-03T08:08:04Z</time>
      </trkpt>
      <trkpt lat="48.16955" lon="4.62253">
        <ele>213</ele>
        <time>2024-07-03T08:08:28Z</time>
      </trkpt>
      <trkpt lat="48.1697" lon="4.62219">
        <ele>212</ele>
        <time>2024-07-03T08:08:32Z</time>
      </trkpt>
      <trkpt lat="48.16975" lon="4.622">
        <ele>212</ele>
        <time>2024-07-03T08:08:35Z</time>
      </trkpt>
      <trkpt lat="48.16974" lon="4.62188">
        <ele>212</ele>
        <time>2024-07-03T08:08:36Z</time>
      </trkpt>
      <trkpt lat="48.16958" lon="4.62173">
        <ele>212</ele>
        <time>2024-07-03T08:08:40Z</time>
      </trkpt>
      <trkpt lat="48.1691" lon="4.62149">
        <ele>212</ele>
        <time>2024-07-03T08:08:49Z</time>
      </trkpt>
      <trkpt lat="48.16891" lon="4.6213">
        <ele>212</ele>
        <time>2024-07-03T08:08:53Z</time>
      </trkpt>
      <trkpt lat="48.16878" lon="4.62109">
        <ele>213</ele>
        <time>2024-07-03T08:08:56Z</time>
      </trkpt>
      <trkpt lat="48.16874" lon="4.62093">
        <ele>213</ele>
        <time>2024-07-03T08:08:58Z</time>
      </trkpt>
      <trkpt lat="48.16875" lon="4.62081">
        <ele>214</ele>
        <time>2024-07-03T08:09:00Z</time>
      </trkpt>
      <trkpt lat="48.16883" lon="4.62065">
        <ele>214</ele>
        <time>2024-07-03T08:09:02Z</time>
      </trkpt>
      <trkpt lat="48.16909" lon="4.62032">
        <ele>217</ele>
        <time>2024-07-03T08:09:08Z</time>
      </trkpt>
      <trkpt lat="48.16941" lon="4.61984">
        <ele>218</ele>
        <time>2024-07-03T08:09:16Z</time>
      </trkpt>
      <trkpt lat="48.1696" lon="4.61942">
        <ele>218</ele>
        <time>2024-07-03T08:09:22Z</time>
      </trkpt>
      <trkpt lat="48.1698" lon="4.61884">
        <ele>218</ele>
        <time>2024-07-03T08:09:30Z</time>
      </trkpt>
      <trkpt lat="48.16997" lon="4.61819">
        <ele>219</ele>
        <time>2024-07-03T08:09:38Z</time>
      </trkpt>
      <trkpt lat="48.17" lon="4.61806">
        <ele>219</ele>
        <time>2024-07-03T08:09:40Z</time>
      </trkpt>
      <trkpt lat="48.16999" lon="4.61788">
        <ele>220</ele>
        <time>2024-07-03T08:09:42Z</time>
      </trkpt>
      <trkpt lat="48.17063" lon="4.61746">
        <ele>217</ele>
        <time>2024-07-03T08:09:54Z</time>
      </trkpt>
      <trkpt lat="48.17078" lon="4.61731">
        <ele>216</ele>
        <time>2024-07-03T08:09:58Z</time>
      </trkpt>
      <trkpt lat="48.17101" lon="4.6166">
        <ele>217</ele>
        <time>2024-07-03T08:10:07Z</time>
      </trkpt>
      <trkpt lat="48.17108" lon="4.61649">
        <ele>217</ele>
        <time>2024-07-03T08:10:09Z</time>
      </trkpt>
      <trkpt lat="48.17118" lon="4.61647">
        <ele>217</ele>
        <time>2024-07-03T08:10:11Z</time>
      </trkpt>
      <trkpt lat="48.17127" lon="4.61652">
        <ele>217</ele>
        <time>2024-07-03T08:10:12Z</time>
      </trkpt>
      <trkpt lat="48.17147" lon="4.61679">
        <ele>217</ele>
        <time>2024-07-03T08:10:17Z</time>
      </trkpt>
      <trkpt lat="48.17161" lon="4.61686">
        <ele>217</ele>
        <time>2024-07-03T08:10:20Z</time>
      </trkpt>
      <trkpt lat="48.17207" lon="4.61698">
        <ele>219</ele>
        <time>2024-07-03T08:10:28Z</time>
      </trkpt>
      <trkpt lat="48.1723" lon="4.61687">
        <ele>220</ele>
        <time>2024-07-03T08:10:32Z</time>
      </trkpt>
      <trkpt lat="48.17243" lon="4.61672">
        <ele>220</ele>
        <time>2024-07-03T08:10:35Z</time>
      </trkpt>
      <trkpt lat="48.17281" lon="4.61603">
        <ele>222</ele>
        <time>2024-07-03T08:10:46Z</time>
      </trkpt>
      <trkpt lat="48.17304" lon="4.61567">
        <ele>223</ele>
        <time>2024-07-03T08:10:52Z</time>
      </trkpt>
      <trkpt lat="48.17335" lon="4.61527">
        <ele>224</ele>
        <time>2024-07-03T08:10:59Z</time>
      </trkpt>
      <trkpt lat="48.17358" lon="4.61491">
        <ele>226</ele>
        <time>2024-07-03T08:11:05Z</time>
      </trkpt>
      <trkpt lat="48.17372" lon="4.61462">
        <ele>227</ele>
        <time>2024-07-03T08:11:09Z</time>
      </trkpt>
      <trkpt lat="48.1739" lon="4.61469">
        <ele>229</ele>
        <time>2024-07-03T08:11:12Z</time>
      </trkpt>
      <trkpt lat="48.17439" lon="4.61471">
        <ele>234</ele>
        <time>2024-07-03T08:11:21Z</time>
      </trkpt>
      <trkpt lat="48.17456" lon="4.61478">
        <ele>235</ele>
        <time>2024-07-03T08:11:24Z</time>
      </trkpt>
      <trkpt lat="48.17478" lon="4.61495">
        <ele>237</ele>
        <time>2024-07-03T08:11:29Z</time>
      </trkpt>
      <trkpt lat="48.17503" lon="4.61521">
        <ele>239</ele>
        <time>2024-07-03T08:11:34Z</time>
      </trkpt>
      <trkpt lat="48.17529" lon="4.61553">
        <ele>241</ele>
        <time>2024-07-03T08:11:40Z</time>
      </trkpt>
      <trkpt lat="48.1754" lon="4.61561">
        <ele>241</ele>
        <time>2024-07-03T08:11:42Z</time>
      </trkpt>
      <trkpt lat="48.1756" lon="4.61569">
        <ele>243</ele>
        <time>2024-07-03T08:11:46Z</time>
      </trkpt>
      <trkpt lat="48.17655" lon="4.61582">
        <ele>255</ele>
        <time>2024-07-03T08:12:03Z</time>
      </trkpt>
      <trkpt lat="48.17717" lon="4.61598">
        <ele>264</ele>
        <time>2024-07-03T08:12:14Z</time>
      </trkpt>
      <trkpt lat="48.17838" lon="4.61634">
        <ele>282</ele>
        <time>2024-07-03T08:12:36Z</time>
      </trkpt>
      <trkpt lat="48.17855" lon="4.61648">
        <ele>284</ele>
        <time>2024-07-03T08:12:40Z</time>
      </trkpt>
      <trkpt lat="48.1787" lon="4.61687">
        <ele>285</ele>
        <time>2024-07-03T08:12:45Z</time>
      </trkpt>
      <trkpt lat="48.17886" lon="4.61713">
        <ele>286</ele>
        <time>2024-07-03T08:12:49Z</time>
      </trkpt>
      <trkpt lat="48.17925" lon="4.61756">
        <ele>288</ele>
        <time>2024-07-03T08:12:58Z</time>
      </trkpt>
      <trkpt lat="48.17974" lon="4.61788">
        <ele>296</ele>
        <time>2024-07-03T08:13:07Z</time>
      </trkpt>
      <trkpt lat="48.18073" lon="4.61818">
        <ele>305</ele>
        <time>2024-07-03T08:13:25Z</time>
      </trkpt>
      <trkpt lat="48.18131" lon="4.61825">
        <ele>307</ele>
        <time>2024-07-03T08:13:36Z</time>
      </trkpt>
      <trkpt lat="48.18191" lon="4.61797">
        <ele>310</ele>
        <time>2024-07-03T08:13:47Z</time>
      </trkpt>
      <trkpt lat="48.18249" lon="4.61778">
        <ele>310</ele>
        <time>2024-07-03T08:13:57Z</time>
      </trkpt>
      <trkpt lat="48.18329" lon="4.61781">
        <ele>306</ele>
        <time>2024-07-03T08:14:11Z</time>
      </trkpt>
      <trkpt lat="48.18377" lon="4.61772">
        <ele>301</ele>
        <time>2024-07-03T08:14:20Z</time>
      </trkpt>
      <trkpt lat="48.18402" lon="4.61754">
        <ele>300</ele>
        <time>2024-07-03T08:14:25Z</time>
      </trkpt>
      <trkpt lat="48.18425" lon="4.61725">
        <ele>299</ele>
        <time>2024-07-03T08:14:30Z</time>
      </trkpt>
      <trkpt lat="48.18445" lon="4.61711">
        <ele>299</ele>
        <time>2024-07-03T08:14:34Z</time>
      </trkpt>
      <trkpt lat="48.18465" lon="4.61708">
        <ele>299</ele>
        <time>2024-07-03T08:14:38Z</time>
      </trkpt>
      <trkpt lat="48.18483" lon="4.61717">
        <ele>297</ele>
        <time>2024-07-03T08:14:41Z</time>
      </trkpt>
      <trkpt lat="48.18559" lon="4.6178">
        <ele>292</ele>
        <time>2024-07-03T08:14:57Z</time>
      </trkpt>
      <trkpt lat="48.18675" lon="4.61836">
        <ele>289</ele>
        <time>2024-07-03T08:15:18Z</time>
      </trkpt>
      <trkpt lat="48.18721" lon="4.61862">
        <ele>286</ele>
        <time>2024-07-03T08:15:27Z</time>
      </trkpt>
      <trkpt lat="48.18761" lon="4.61873">
        <ele>285</ele>
        <time>2024-07-03T08:15:34Z</time>
      </trkpt>
      <trkpt lat="48.1885" lon="4.61874">
        <ele>283</ele>
        <time>2024-07-03T08:15:50Z</time>
      </trkpt>
      <trkpt lat="48.18883" lon="4.61881">
        <ele>282</ele>
        <time>2024-07-03T08:15:56Z</time>
      </trkpt>
      <trkpt lat="48.18924" lon="4.61897">
        <ele>281</ele>
        <time>2024-07-03T08:16:04Z</time>
      </trkpt>
      <trkpt lat="48.18975" lon="4.61909">
        <ele>281</ele>
        <time>2024-07-03T08:16:13Z</time>
      </trkpt>
      <trkpt lat="48.1906" lon="4.61917">
        <ele>278</ele>
        <time>2024-07-03T08:16:28Z</time>
      </trkpt>
      <trkpt lat="48.19069" lon="4.61921">
        <ele>278</ele>
        <time>2024-07-03T08:16:30Z</time>
      </trkpt>
      <trkpt lat="48.19077" lon="4.6193">
        <ele>277</ele>
        <time>2024-07-03T08:16:31Z</time>
      </trkpt>
      <trkpt lat="48.1911" lon="4.61998">
        <ele>273</ele>
        <time>2024-07-03T08:16:41Z</time>
      </trkpt>
      <trkpt lat="48.19127" lon="4.62022">
        <ele>271</ele>
        <time>2024-07-03T08:16:46Z</time>
      </trkpt>
      <trkpt lat="48.1916" lon="4.62051">
        <ele>270</ele>
        <time>2024-07-03T08:16:52Z</time>
      </trkpt>
      <trkpt lat="48.19207" lon="4.62079">
        <ele>269</ele>
        <time>2024-07-03T08:17:01Z</time>
      </trkpt>
      <trkpt lat="48.19276" lon="4.6214">
        <ele>264</ele>
        <time>2024-07-03T08:17:16Z</time>
      </trkpt>
      <trkpt lat="48.19311" lon="4.62157">
        <ele>264</ele>
        <time>2024-07-03T08:17:22Z</time>
      </trkpt>
      <trkpt lat="48.19366" lon="4.62192">
        <ele>261</ele>
        <time>2024-07-03T08:17:33Z</time>
      </trkpt>
      <trkpt lat="48.19399" lon="4.62208">
        <ele>259</ele>
        <time>2024-07-03T08:17:39Z</time>
      </trkpt>
      <trkpt lat="48.19445" lon="4.6222">
        <ele>256</ele>
        <time>2024-07-03T08:17:47Z</time>
      </trkpt>
      <trkpt lat="48.19504" lon="4.62249">
        <ele>251</ele>
        <time>2024-07-03T08:17:58Z</time>
      </trkpt>
      <trkpt lat="48.19549" lon="4.62275">
        <ele>244</ele>
        <time>2024-07-03T08:18:07Z</time>
      </trkpt>
      <trkpt lat="48.19574" lon="4.62301">
        <ele>239</ele>
        <time>2024-07-03T08:18:12Z</time>
      </trkpt>
      <trkpt lat="48.19582" lon="4.62314">
        <ele>236</ele>
        <time>2024-07-03T08:18:14Z</time>
      </trkpt>
      <trkpt lat="48.19598" lon="4.62331">
        <ele>233</ele>
        <time>2024-07-03T08:18:18Z</time>
      </trkpt>
      <trkpt lat="48.19624" lon="4.62352">
        <ele>227</ele>
        <time>2024-07-03T08:18:23Z</time>
      </trkpt>
      <trkpt lat="48.19639" lon="4.62361">
        <ele>224</ele>
        <time>2024-07-03T08:18:26Z</time>
      </trkpt>
      <trkpt lat="48.19672" lon="4.62365">
        <ele>220</ele>
        <time>2024-07-03T08:18:32Z</time>
      </trkpt>
      <trkpt lat="48.19707" lon="4.62361">
        <ele>217</ele>
        <time>2024-07-03T08:18:38Z</time>
      </trkpt>
      <trkpt lat="48.19766" lon="4.6234">
        <ele>213</ele>
        <time>2024-07-03T08:18:49Z</time>
      </trkpt>
      <trkpt lat="48.19792" lon="4.62339">
        <ele>212</ele>
        <time>2024-07-03T08:18:54Z</time>
      </trkpt>
      <trkpt lat="48.1982" lon="4.62345">
        <ele>210</ele>
        <time>2024-07-03T08:18:59Z</time>
      </trkpt>
      <trkpt lat="48.1988" lon="4.62368">
        <ele>206</ele>
        <time>2024-07-03T08:19:10Z</time>
      </trkpt>
      <trkpt lat="48.19986" lon="4.62404">
        <ele>202</ele>
        <time>2024-07-03T08:19:29Z</time>
      </trkpt>
      <trkpt lat="48.20018" lon="4.62409">
        <ele>200</ele>
        <time>2024-07-03T08:19:35Z</time>
      </trkpt>
      <trkpt lat="48.20047" lon="4.62425">
        <ele>198</ele>
        <time>2024-07-03T08:19:40Z</time>
      </trkpt>
      <trkpt lat="48.20054" lon="4.62432">
        <ele>197</ele>
        <time>2024-07-03T08:19:42Z</time>
      </trkpt>
      <trkpt lat="48.20066" lon="4.6243">
        <ele>196</ele>
        <time>2024-07-03T08:19:44Z</time>
      </trkpt>
      <trkpt lat="48.20069" lon="4.62423">
        <ele>196</ele>
        <time>2024-07-03T08:19:45Z</time>
      </trkpt>
      <trkpt lat="48.20098" lon="4.62398">
        <ele>196</ele>
        <time>2024-07-03T08:19:51Z</time>
      </trkpt>
      <trkpt lat="48.20162" lon="4.62357">
        <ele>201</ele>
        <time>2024-07-03T08:20:03Z</time>
      </trkpt>
      <trkpt lat="48.20194" lon="4.62333">
        <ele>201</ele>
        <time>2024-07-03T08:20:10Z</time>
      </trkpt>
      <trkpt lat="48.20207" lon="4.62363">
        <ele>201</ele>
        <time>2024-07-03T08:20:14Z</time>
      </trkpt>
      <trkpt lat="48.2023" lon="4.62371">
        <ele>200</ele>
        <time>2024-07-03T08:20:18Z</time>
      </trkpt>
      <trkpt lat="48.20238" lon="4.62368">
        <ele>200</ele>
        <time>2024-07-03T08:20:19Z</time>
      </trkpt>
      <trkpt lat="48.2025" lon="4.62356">
        <ele>200</ele>
        <time>2024-07-03T08:20:22Z</time>
      </trkpt>
      <trkpt lat="48.20273" lon="4.62342">
        <ele>199</ele>
        <time>2024-07-03T08:20:26Z</time>
      </trkpt>
      <trkpt lat="48.20279" lon="4.62336">
        <ele>199</ele>
        <time>2024-07-03T08:20:28Z</time>
      </trkpt>
      <trkpt lat="48.20287" lon="4.62333">
        <ele>199</ele>
        <time>2024-07-03T08:20:29Z</time>
      </trkpt>
      <trkpt lat="48.20289" lon="4.62311">
        <ele>199</ele>
        <time>2024-07-03T08:20:32Z</time>
      </trkpt>
      <trkpt lat="48.20288" lon="4.62205">
        <ele>199</ele>
        <time>2024-07-03T08:20:44Z</time>
      </trkpt>
      <trkpt lat="48.20294" lon="4.62156">
        <ele>199</ele>
        <time>2024-07-03T08:20:50Z</time>
      </trkpt>
      <trkpt lat="48.20307" lon="4.62129">
        <ele>199</ele>
        <time>2024-07-03T08:20:54Z</time>
      </trkpt>
      <trkpt lat="48.20328" lon="4.62095">
        <ele>200</ele>
        <time>2024-07-03T08:21:00Z</time>
      </trkpt>
      <trkpt lat="48.20351" lon="4.62066">
        <ele>202</ele>
        <time>2024-07-03T08:21:05Z</time>
      </trkpt>
      <trkpt lat="48.2037" lon="4.62061">
        <ele>204</ele>
        <time>2024-07-03T08:21:09Z</time>
      </trkpt>
      <trkpt lat="48.20391" lon="4.62068">
        <ele>205</ele>
        <time>2024-07-03T08:21:12Z</time>
      </trkpt>
      <trkpt lat="48.20428" lon="4.62095">
        <ele>206</ele>
        <time>2024-07-03T08:21:20Z</time>
      </trkpt>
      <trkpt lat="48.20449" lon="4.62103">
        <ele>207</ele>
        <time>2024-07-03T08:21:24Z</time>
      </trkpt>
      <trkpt lat="48.2047" lon="4.62105">
        <ele>208</ele>
        <time>2024-07-03T08:21:27Z</time>
      </trkpt>
      <trkpt lat="48.20488" lon="4.62102">
        <ele>210</ele>
        <time>2024-07-03T08:21:31Z</time>
      </trkpt>
      <trkpt lat="48.20459" lon="4.61992">
        <ele>218</ele>
        <time>2024-07-03T08:21:45Z</time>
      </trkpt>
      <trkpt lat="48.20448" lon="4.61937">
        <ele>222</ele>
        <time>2024-07-03T08:21:51Z</time>
      </trkpt>
      <trkpt lat="48.20448" lon="4.61906">
        <ele>225</ele>
        <time>2024-07-03T08:21:55Z</time>
      </trkpt>
      <trkpt lat="48.20463" lon="4.61911">
        <ele>227</ele>
        <time>2024-07-03T08:21:58Z</time>
      </trkpt>
      <trkpt lat="48.20497" lon="4.61915">
        <ele>231</ele>
        <time>2024-07-03T08:22:04Z</time>
      </trkpt>
      <trkpt lat="48.20527" lon="4.61913">
        <ele>232</ele>
        <time>2024-07-03T08:22:09Z</time>
      </trkpt>
      <trkpt lat="48.20551" lon="4.61898">
        <ele>233</ele>
        <time>2024-07-03T08:22:14Z</time>
      </trkpt>
      <trkpt lat="48.20562" lon="4.61882">
        <ele>235</ele>
        <time>2024-07-03T08:22:17Z</time>
      </trkpt>
      <trkpt lat="48.20567" lon="4.61863">
        <ele>237</ele>
        <time>2024-07-03T08:22:19Z</time>
      </trkpt>
      <trkpt lat="48.20568" lon="4.61783">
        <ele>244</ele>
        <time>2024-07-03T08:22:28Z</time>
      </trkpt>
      <trkpt lat="48.20583" lon="4.61704">
        <ele>248</ele>
        <time>2024-07-03T08:22:38Z</time>
      </trkpt>
      <trkpt lat="48.20592" lon="4.61608">
        <ele>250</ele>
        <time>2024-07-03T08:22:50Z</time>
      </trkpt>
      <trkpt lat="48.20594" lon="4.61563">
        <ele>251</ele>
        <time>2024-07-03T08:22:55Z</time>
      </trkpt>
      <trkpt lat="48.20598" lon="4.61524">
        <ele>252</ele>
        <time>2024-07-03T08:23:00Z</time>
      </trkpt>
      <trkpt lat="48.20605" lon="4.61486">
        <ele>252</ele>
        <time>2024-07-03T08:23:04Z</time>
      </trkpt>
      <trkpt lat="48.2062" lon="4.61429">
        <ele>253</ele>
        <time>2024-07-03T08:23:12Z</time>
      </trkpt>
      <trkpt lat="48.20624" lon="4.61423">
        <ele>252</ele>
        <time>2024-07-03T08:23:13Z</time>
      </trkpt>
      <trkpt lat="48.20628" lon="4.61422">
        <ele>252</ele>
        <time>2024-07-03T08:23:13Z</time>
      </trkpt>
      <trkpt lat="48.20643" lon="4.61428">
        <ele>252</ele>
        <time>2024-07-03T08:23:16Z</time>
      </trkpt>
      <trkpt lat="48.20666" lon="4.61341">
        <ele>252</ele>
        <time>2024-07-03T08:23:27Z</time>
      </trkpt>
      <trkpt lat="48.20737" lon="4.61158">
        <ele>258</ele>
        <time>2024-07-03T08:23:52Z</time>
      </trkpt>
      <trkpt lat="48.20756" lon="4.60941">
        <ele>259</ele>
        <time>2024-07-03T08:24:18Z</time>
      </trkpt>
      <trkpt lat="48.20824" lon="4.60956">
        <ele>259</ele>
        <time>2024-07-03T08:24:31Z</time>
      </trkpt>
      <trkpt lat="48.20832" lon="4.60956">
        <ele>259</ele>
        <time>2024-07-03T08:24:32Z</time>
      </trkpt>
      <trkpt lat="48.2084" lon="4.60951">
        <ele>259</ele>
        <time>2024-07-03T08:24:33Z</time>
      </trkpt>
      <trkpt lat="48.20866" lon="4.60918">
        <ele>260</ele>
        <time>2024-07-03T08:24:40Z</time>
      </trkpt>
      <trkpt lat="48.20968" lon="4.6081">
        <ele>258</ele>
        <time>2024-07-03T08:25:02Z</time>
      </trkpt>
      <trkpt lat="48.20996" lon="4.60773">
        <ele>256</ele>
        <time>2024-07-03T08:25:08Z</time>
      </trkpt>
      <trkpt lat="48.2101" lon="4.60751">
        <ele>255</ele>
        <time>2024-07-03T08:25:12Z</time>
      </trkpt>
      <trkpt lat="48.21022" lon="4.60726">
        <ele>254</ele>
        <time>2024-07-03T08:25:16Z</time>
      </trkpt>
      <trkpt lat="48.21057" lon="4.60644">
        <ele>249</ele>
        <time>2024-07-03T08:25:27Z</time>
      </trkpt>
      <trkpt lat="48.21083" lon="4.60603">
        <ele>244</ele>
        <time>2024-07-03T08:25:34Z</time>
      </trkpt>
      <trkpt lat="48.21122" lon="4.60549">
        <ele>243</ele>
        <time>2024-07-03T08:25:43Z</time>
      </trkpt>
      <trkpt lat="48.21157" lon="4.60514">
        <ele>239</ele>
        <time>2024-07-03T08:25:51Z</time>
      </trkpt>
      <trkpt lat="48.21184" lon="4.60496">
        <ele>235</ele>
        <time>2024-07-03T08:25:56Z</time>
      </trkpt>
      <trkpt lat="48.21267" lon="4.60452">
        <ele>226</ele>
        <time>2024-07-03T08:26:12Z</time>
      </trkpt>
      <trkpt lat="48.21293" lon="4.60435">
        <ele>221</ele>
        <time>2024-07-03T08:26:17Z</time>
      </trkpt>
      <trkpt lat="48.21319" lon="4.60415">
        <ele>216</ele>
        <time>2024-07-03T08:26:22Z</time>
      </trkpt>
      <trkpt lat="48.21332" lon="4.60399">
        <ele>214</ele>
        <time>2024-07-03T08:26:25Z</time>
      </trkpt>
      <trkpt lat="48.21341" lon="4.60382">
        <ele>213</ele>
        <time>2024-07-03T08:26:28Z</time>
      </trkpt>
      <trkpt lat="48.21371" lon="4.60279">
        <ele>210</ele>
        <time>2024-07-03T08:26:41Z</time>
      </trkpt>
      <trkpt lat="48.21398" lon="4.60221">
        <ele>207</ele>
        <time>2024-07-03T08:26:49Z</time>
      </trkpt>
      <trkpt lat="48.21428" lon="4.60183">
        <ele>207</ele>
        <time>2024-07-03T08:26:56Z</time>
      </trkpt>
      <trkpt lat="48.21458" lon="4.60149">
        <ele>207</ele>
        <time>2024-07-03T08:27:03Z</time>
      </trkpt>
      <trkpt lat="48.21473" lon="4.60138">
        <ele>206</ele>
        <time>2024-07-03T08:27:06Z</time>
      </trkpt>
      <trkpt lat="48.21517" lon="4.60121">
        <ele>206</ele>
        <time>2024-07-03T08:27:14Z</time>
      </trkpt>
      <trkpt lat="48.21539" lon="4.60116">
        <ele>209</ele>
        <time>2024-07-03T08:27:18Z</time>
      </trkpt>
      <trkpt lat="48.21537" lon="4.6021">
        <ele>206</ele>
        <time>2024-07-03T08:27:29Z</time>
      </trkpt>
      <trkpt lat="48.2154" lon="4.60238">
        <ele>206</ele>
        <time>2024-07-03T08:27:32Z</time>
      </trkpt>
      <trkpt lat="48.21557" lon="4.60327">
        <ele>204</ele>
        <time>2024-07-03T08:27:43Z</time>
      </trkpt>
      <trkpt lat="48.21583" lon="4.60425">
        <ele>201</ele>
        <time>2024-07-03T08:27:56Z</time>
      </trkpt>
      <trkpt lat="48.21605" lon="4.60526">
        <ele>202</ele>
        <time>2024-07-03T08:28:09Z</time>
      </trkpt>
      <trkpt lat="48.2163" lon="4.60736">
        <ele>210</ele>
        <time>2024-07-03T08:28:34Z</time>
      </trkpt>
      <trkpt lat="48.21648" lon="4.60862">
        <ele>212</ele>
        <time>2024-07-03T08:28:49Z</time>
      </trkpt>
      <trkpt lat="48.21659" lon="4.60926">
        <ele>212</ele>
        <time>2024-07-03T08:28:57Z</time>
      </trkpt>
      <trkpt lat="48.21699" lon="4.61099">
        <ele>210</ele>
        <time>2024-07-03T08:29:19Z</time>
      </trkpt>
      <trkpt lat="48.21705" lon="4.612">
        <ele>212</ele>
        <time>2024-07-03T08:29:31Z</time>
      </trkpt>
      <trkpt lat="48.21718" lon="4.61313">
        <ele>214</ele>
        <time>2024-07-03T08:29:44Z</time>
      </trkpt>
      <trkpt lat="48.21726" lon="4.61364">
        <ele>213</ele>
        <time>2024-07-03T08:29:51Z</time>
      </trkpt>
      <trkpt lat="48.21764" lon="4.61537">
        <ele>213</ele>
        <time>2024-07-03T08:30:12Z</time>
      </trkpt>
      <trkpt lat="48.21772" lon="4.61584">
        <ele>213</ele>
        <time>2024-07-03T08:30:18Z</time>
      </trkpt>
      <trkpt lat="48.21779" lon="4.61676">
        <ele>213</ele>
        <time>2024-07-03T08:30:29Z</time>
      </trkpt>
      <trkpt lat="48.21795" lon="4.6177">
        <ele>212</ele>
        <time>2024-07-03T08:30:40Z</time>
      </trkpt>
      <trkpt lat="48.21804" lon="4.61814">
        <ele>211</ele>
        <time>2024-07-03T08:30:46Z</time>
      </trkpt>
      <trkpt lat="48.21822" lon="4.6187">
        <ele>209</ele>
        <time>2024-07-03T08:30:53Z</time>
      </trkpt>
      <trkpt lat="48.21858" lon="4.61949">
        <ele>206</ele>
        <time>2024-07-03T08:31:05Z</time>
      </trkpt>
      <trkpt lat="48.21893" lon="4.62018">
        <ele>201</ele>
        <time>2024-07-03T08:31:15Z</time>
      </trkpt>
      <trkpt lat="48.21907" lon="4.62031">
        <ele>201</ele>
        <time>2024-07-03T08:31:18Z</time>
      </trkpt>
      <trkpt lat="48.21934" lon="4.62049">
        <ele>200</ele>
        <time>2024-07-03T08:31:23Z</time>
      </trkpt>
      <trkpt lat="48.22021" lon="4.62093">
        <ele>197</ele>
        <time>2024-07-03T08:31:39Z</time>
      </trkpt>
      <trkpt lat="48.22094" lon="4.62113">
        <ele>198</ele>
        <time>2024-07-03T08:31:53Z</time>
      </trkpt>
      <trkpt lat="48.22126" lon="4.62118">
        <ele>198</ele>
        <time>2024-07-03T08:31:58Z</time>
      </trkpt>
      <trkpt lat="48.2217" lon="4.62118">
        <ele>198</ele>
        <time>2024-07-03T08:32:06Z</time>
      </trkpt>
      <trkpt lat="48.22187" lon="4.62114">
        <ele>198</ele>
        <time>2024-07-03T08:32:09Z</time>
      </trkpt>
      <trkpt lat="48.22224" lon="4.62099">
        <ele>200</ele>
        <time>2024-07-03T08:32:16Z</time>
      </trkpt>
      <trkpt lat="48.22265" lon="4.62078">
        <ele>201</ele>
        <time>2024-07-03T08:32:24Z</time>
      </trkpt>
      <trkpt lat="48.22365" lon="4.62033">
        <ele>204</ele>
        <time>2024-07-03T08:32:42Z</time>
      </trkpt>
      <trkpt lat="48.22432" lon="4.61993">
        <ele>207</ele>
        <time>2024-07-03T08:32:55Z</time>
      </trkpt>
      <trkpt lat="48.22468" lon="4.61975">
        <ele>207</ele>
        <time>2024-07-03T08:33:02Z</time>
      </trkpt>
      <trkpt lat="48.22562" lon="4.61904">
        <ele>209</ele>
        <time>2024-07-03T08:33:21Z</time>
      </trkpt>
      <trkpt lat="48.22604" lon="4.61884">
        <ele>207</ele>
        <time>2024-07-03T08:33:28Z</time>
      </trkpt>
      <trkpt lat="48.22708" lon="4.61845">
        <ele>195</ele>
        <time>2024-07-03T08:33:47Z</time>
      </trkpt>
      <trkpt lat="48.22654" lon="4.62207">
        <ele>177</ele>
        <time>2024-07-03T08:34:31Z</time>
      </trkpt>
      <trkpt lat="48.22609" lon="4.62538">
        <ele>176</ele>
        <time>2024-07-03T08:35:11Z</time>
      </trkpt>
      <trkpt lat="48.22596" lon="4.62771">
        <ele>179</ele>
        <time>2024-07-03T08:35:39Z</time>
      </trkpt>
      <trkpt lat="48.2258" lon="4.6297">
        <ele>194</ele>
        <time>2024-07-03T08:36:03Z</time>
      </trkpt>
      <trkpt lat="48.22592" lon="4.63077">
        <ele>204</ele>
        <time>2024-07-03T08:36:16Z</time>
      </trkpt>
      <trkpt lat="48.22643" lon="4.63331">
        <ele>231</ele>
        <time>2024-07-03T08:36:47Z</time>
      </trkpt>
      <trkpt lat="48.22669" lon="4.63421">
        <ele>236</ele>
        <time>2024-07-03T08:36:59Z</time>
      </trkpt>
      <trkpt lat="48.22729" lon="4.63589">
        <ele>252</ele>
        <time>2024-07-03T08:37:21Z</time>
      </trkpt>
      <trkpt lat="48.22734" lon="4.6362">
        <ele>254</ele>
        <time>2024-07-03T08:37:25Z</time>
      </trkpt>
      <trkpt lat="48.22731" lon="4.63686">
        <ele>258</ele>
        <time>2024-07-03T08:37:33Z</time>
      </trkpt>
      <trkpt lat="48.22727" lon="4.63715">
        <ele>260</ele>
        <time>2024-07-03T08:37:37Z</time>
      </trkpt>
      <trkpt lat="48.22703" lon="4.63811">
        <ele>266</ele>
        <time>2024-07-03T08:37:49Z</time>
      </trkpt>
      <trkpt lat="48.22675" lon="4.63881">
        <ele>270</ele>
        <time>2024-07-03T08:37:58Z</time>
      </trkpt>
      <trkpt lat="48.22654" lon="4.63924">
        <ele>271</ele>
        <time>2024-07-03T08:38:05Z</time>
      </trkpt>
      <trkpt lat="48.22591" lon="4.64035">
        <ele>277</ele>
        <time>2024-07-03T08:38:22Z</time>
      </trkpt>
      <trkpt lat="48.22532" lon="4.64158">
        <ele>281</ele>
        <time>2024-07-03T08:38:40Z</time>
      </trkpt>
      <trkpt lat="48.22489" lon="4.64241">
        <ele>283</ele>
        <time>2024-07-03T08:38:52Z</time>
      </trkpt>
      <trkpt lat="48.2247" lon="4.64293">
        <ele>284</ele>
        <time>2024-07-03T08:38:59Z</time>
      </trkpt>
      <trkpt lat="48.22428" lon="4.64432">
        <ele>287</ele>
        <time>2024-07-03T08:39:18Z</time>
      </trkpt>
      <trkpt lat="48.22346" lon="4.64746">
        <ele>293</ele>
        <time>2024-07-03T08:39:58Z</time>
      </trkpt>
      <trkpt lat="48.22332" lon="4.64816">
        <ele>288</ele>
        <time>2024-07-03T08:40:06Z</time>
      </trkpt>
      <trkpt lat="48.22296" lon="4.65032">
        <ele>278</ele>
        <time>2024-07-03T08:40:33Z</time>
      </trkpt>
      <trkpt lat="48.22248" lon="4.65356">
        <ele>291</ele>
        <time>2024-07-03T08:41:12Z</time>
      </trkpt>
      <trkpt lat="48.22216" lon="4.65533">
        <ele>302</ele>
        <time>2024-07-03T08:41:34Z</time>
      </trkpt>
      <trkpt lat="48.22152" lon="4.65934">
        <ele>300</ele>
        <time>2024-07-03T08:42:23Z</time>
      </trkpt>
      <trkpt lat="48.22143" lon="4.66006">
        <ele>296</ele>
        <time>2024-07-03T08:42:31Z</time>
      </trkpt>
      <trkpt lat="48.22147" lon="4.66081">
        <ele>293</ele>
        <time>2024-07-03T08:42:40Z</time>
      </trkpt>
      <trkpt lat="48.22165" lon="4.66266">
        <ele>299</ele>
        <time>2024-07-03T08:43:02Z</time>
      </trkpt>
      <trkpt lat="48.22174" lon="4.66399">
        <ele>306</ele>
        <time>2024-07-03T08:43:18Z</time>
      </trkpt>
      <trkpt lat="48.22185" lon="4.66454">
        <ele>308</ele>
        <time>2024-07-03T08:43:25Z</time>
      </trkpt>
      <trkpt lat="48.22218" lon="4.66547">
        <ele>310</ele>
        <time>2024-07-03T08:43:38Z</time>
      </trkpt>
      <trkpt lat="48.22322" lon="4.66746">
        <ele>306</ele>
        <time>2024-07-03T08:44:07Z</time>
      </trkpt>
      <trkpt lat="48.22352" lon="4.66812">
        <ele>303</ele>
        <time>2024-07-03T08:44:17Z</time>
      </trkpt>
      <trkpt lat="48.22468" lon="4.67115">
        <ele>306</ele>
        <time>2024-07-03T08:44:58Z</time>
      </trkpt>
      <trkpt lat="48.22507" lon="4.67209">
        <ele>310</ele>
        <time>2024-07-03T08:45:12Z</time>
      </trkpt>
      <trkpt lat="48.22634" lon="4.67443">
        <ele>309</ele>
        <time>2024-07-03T08:45:47Z</time>
      </trkpt>
      <trkpt lat="48.22695" lon="4.67561">
        <ele>308</ele>
        <time>2024-07-03T08:46:05Z</time>
      </trkpt>
      <trkpt lat="48.22717" lon="4.67596">
        <ele>306</ele>
        <time>2024-07-03T08:46:11Z</time>
      </trkpt>
      <trkpt lat="48.22744" lon="4.67654">
        <ele>303</ele>
        <time>2024-07-03T08:46:19Z</time>
      </trkpt>
      <trkpt lat="48.22752" lon="4.67679">
        <ele>303</ele>
        <time>2024-07-03T08:46:22Z</time>
      </trkpt>
      <trkpt lat="48.22783" lon="4.67864">
        <ele>300</ele>
        <time>2024-07-03T08:46:45Z</time>
      </trkpt>
      <trkpt lat="48.2282" lon="4.68126">
        <ele>283</ele>
        <time>2024-07-03T08:47:17Z</time>
      </trkpt>
      <trkpt lat="48.22825" lon="4.68146">
        <ele>281</ele>
        <time>2024-07-03T08:47:19Z</time>
      </trkpt>
      <trkpt lat="48.2283" lon="4.68159">
        <ele>280</ele>
        <time>2024-07-03T08:47:21Z</time>
      </trkpt>
      <trkpt lat="48.22838" lon="4.68169">
        <ele>279</ele>
        <time>2024-07-03T08:47:23Z</time>
      </trkpt>
      <trkpt lat="48.22846" lon="4.68174">
        <ele>278</ele>
        <time>2024-07-03T08:47:24Z</time>
      </trkpt>
      <trkpt lat="48.22855" lon="4.68174">
        <ele>277</ele>
        <time>2024-07-03T08:47:26Z</time>
      </trkpt>
      <trkpt lat="48.22866" lon="4.6817">
        <ele>278</ele>
        <time>2024-07-03T08:47:28Z</time>
      </trkpt>
      <trkpt lat="48.22888" lon="4.68153">
        <ele>280</ele>
        <time>2024-07-03T08:47:32Z</time>
      </trkpt>
      <trkpt lat="48.22904" lon="4.68146">
        <ele>280</ele>
        <time>2024-07-03T08:47:35Z</time>
      </trkpt>
      <trkpt lat="48.22918" lon="4.68146">
        <ele>280</ele>
        <time>2024-07-03T08:47:38Z</time>
      </trkpt>
      <trkpt lat="48.22933" lon="4.68154">
        <ele>280</ele>
        <time>2024-07-03T08:47:41Z</time>
      </trkpt>
      <trkpt lat="48.22956" lon="4.68198">
        <ele>275</ele>
        <time>2024-07-03T08:47:47Z</time>
      </trkpt>
      <trkpt lat="48.22973" lon="4.68251">
        <ele>269</ele>
        <time>2024-07-03T08:47:54Z</time>
      </trkpt>
      <trkpt lat="48.22993" lon="4.6837">
        <ele>258</ele>
        <time>2024-07-03T08:48:09Z</time>
      </trkpt>
      <trkpt lat="48.22997" lon="4.68425">
        <ele>252</ele>
        <time>2024-07-03T08:48:15Z</time>
      </trkpt>
      <trkpt lat="48.22997" lon="4.68488">
        <ele>243</ele>
        <time>2024-07-03T08:48:23Z</time>
      </trkpt>
      <trkpt lat="48.23" lon="4.68525">
        <ele>238</ele>
        <time>2024-07-03T08:48:27Z</time>
      </trkpt>
      <trkpt lat="48.2302" lon="4.6864">
        <ele>227</ele>
        <time>2024-07-03T08:48:41Z</time>
      </trkpt>
      <trkpt lat="48.23035" lon="4.68807">
        <ele>205</ele>
        <time>2024-07-03T08:49:01Z</time>
      </trkpt>
      <trkpt lat="48.23042" lon="4.68843">
        <ele>202</ele>
        <time>2024-07-03T08:49:06Z</time>
      </trkpt>
      <trkpt lat="48.23069" lon="4.68935">
        <ele>191</ele>
        <time>2024-07-03T08:49:18Z</time>
      </trkpt>
      <trkpt lat="48.23091" lon="4.6898">
        <ele>185</ele>
        <time>2024-07-03T08:49:24Z</time>
      </trkpt>
      <trkpt lat="48.23143" lon="4.69058">
        <ele>177</ele>
        <time>2024-07-03T08:49:37Z</time>
      </trkpt>
      <trkpt lat="48.23158" lon="4.6904">
        <ele>178</ele>
        <time>2024-07-03T08:49:41Z</time>
      </trkpt>
      <trkpt lat="48.23171" lon="4.69142">
        <ele>172</ele>
        <time>2024-07-03T08:49:53Z</time>
      </trkpt>
      <trkpt lat="48.23174" lon="4.6915">
        <ele>172</ele>
        <time>2024-07-03T08:49:54Z</time>
      </trkpt>
      <trkpt lat="48.23157" lon="4.69201">
        <ele>171</ele>
        <time>2024-07-03T08:50:01Z</time>
      </trkpt>
      <trkpt lat="48.23139" lon="4.6929">
        <ele>171</ele>
        <time>2024-07-03T08:50:12Z</time>
      </trkpt>
      <trkpt lat="48.23138" lon="4.69376">
        <ele>171</ele>
        <time>2024-07-03T08:50:22Z</time>
      </trkpt>
      <trkpt lat="48.23141" lon="4.69432">
        <ele>171</ele>
        <time>2024-07-03T08:50:29Z</time>
      </trkpt>
      <trkpt lat="48.23157" lon="4.69563">
        <ele>169</ele>
        <time>2024-07-03T08:50:45Z</time>
      </trkpt>
      <trkpt lat="48.23156" lon="4.69606">
        <ele>168</ele>
        <time>2024-07-03T08:50:50Z</time>
      </trkpt>
      <trkpt lat="48.23144" lon="4.69717">
        <ele>167</ele>
        <time>2024-07-03T08:51:03Z</time>
      </trkpt>
      <trkpt lat="48.23133" lon="4.69769">
        <ele>166</ele>
        <time>2024-07-03T08:51:10Z</time>
      </trkpt>
      <trkpt lat="48.23125" lon="4.69791">
        <ele>166</ele>
        <time>2024-07-03T08:51:13Z</time>
      </trkpt>
      <trkpt lat="48.23081" lon="4.69852">
        <ele>167</ele>
        <time>2024-07-03T08:51:23Z</time>
      </trkpt>
      <trkpt lat="48.23077" lon="4.69866">
        <ele>166</ele>
        <time>2024-07-03T08:51:25Z</time>
      </trkpt>
      <trkpt lat="48.23067" lon="4.69938">
        <ele>166</ele>
        <time>2024-07-03T08:51:34Z</time>
      </trkpt>
      <trkpt lat="48.2304" lon="4.70056">
        <ele>172</ele>
        <time>2024-07-03T08:51:49Z</time>
      </trkpt>
      <trkpt lat="48.23015" lon="4.70143">
        <ele>172</ele>
        <time>2024-07-03T08:52:00Z</time>
      </trkpt>
      <trkpt lat="48.23011" lon="4.70154">
        <ele>172</ele>
        <time>2024-07-03T08:52:01Z</time>
      </trkpt>
      <trkpt lat="48.23005" lon="4.70162">
        <ele>172</ele>
        <time>2024-07-03T08:52:03Z</time>
      </trkpt>
      <trkpt lat="48.23" lon="4.70204">
        <ele>171</ele>
        <time>2024-07-03T08:52:08Z</time>
      </trkpt>
      <trkpt lat="48.22982" lon="4.70299">
        <ele>170</ele>
        <time>2024-07-03T08:52:19Z</time>
      </trkpt>
      <trkpt lat="48.22981" lon="4.70318">
        <ele>170</ele>
        <time>2024-07-03T08:52:22Z</time>
      </trkpt>
      <trkpt lat="48.22978" lon="4.70319">
        <ele>170</ele>
        <time>2024-07-03T08:52:22Z</time>
      </trkpt>
      <trkpt lat="48.22939" lon="4.70272">
        <ele>177</ele>
        <time>2024-07-03T08:52:31Z</time>
      </trkpt>
      <trkpt lat="48.22931" lon="4.70257">
        <ele>178</ele>
        <time>2024-07-03T08:52:33Z</time>
      </trkpt>
      <trkpt lat="48.22921" lon="4.70253">
        <ele>179</ele>
        <time>2024-07-03T08:52:35Z</time>
      </trkpt>
      <trkpt lat="48.22872" lon="4.70213">
        <ele>187</ele>
        <time>2024-07-03T08:52:45Z</time>
      </trkpt>
      <trkpt lat="48.22837" lon="4.70195">
        <ele>193</ele>
        <time>2024-07-03T08:52:52Z</time>
      </trkpt>
      <trkpt lat="48.22787" lon="4.70142">
        <ele>199</ele>
        <time>2024-07-03T08:53:03Z</time>
      </trkpt>
      <trkpt lat="48.22725" lon="4.70112">
        <ele>206</ele>
        <time>2024-07-03T08:53:14Z</time>
      </trkpt>
      <trkpt lat="48.22677" lon="4.70069">
        <ele>214</ele>
        <time>2024-07-03T08:53:24Z</time>
      </trkpt>
      <trkpt lat="48.22679" lon="4.70061">
        <ele>213</ele>
        <time>2024-07-03T08:53:25Z</time>
      </trkpt>
      <trkpt lat="48.22607" lon="4.70007">
        <ele>223</ele>
        <time>2024-07-03T08:53:40Z</time>
      </trkpt>
      <trkpt lat="48.22591" lon="4.69992">
        <ele>226</ele>
        <time>2024-07-03T08:53:43Z</time>
      </trkpt>
      <trkpt lat="48.22558" lon="4.69954">
        <ele>229</ele>
        <time>2024-07-03T08:53:50Z</time>
      </trkpt>
      <trkpt lat="48.22438" lon="4.6989">
        <ele>253</ele>
        <time>2024-07-03T08:54:13Z</time>
      </trkpt>
      <trkpt lat="48.22405" lon="4.69849">
        <ele>260</ele>
        <time>2024-07-03T08:54:21Z</time>
      </trkpt>
      <trkpt lat="48.22396" lon="4.69834">
        <ele>262</ele>
        <time>2024-07-03T08:54:23Z</time>
      </trkpt>
      <trkpt lat="48.22374" lon="4.69782">
        <ele>264</ele>
        <time>2024-07-03T08:54:30Z</time>
      </trkpt>
      <trkpt lat="48.22308" lon="4.69724">
        <ele>276</ele>
        <time>2024-07-03T08:54:44Z</time>
      </trkpt>
      <trkpt lat="48.22273" lon="4.69713">
        <ele>282</ele>
        <time>2024-07-03T08:54:50Z</time>
      </trkpt>
      <trkpt lat="48.22223" lon="4.69703">
        <ele>290</ele>
        <time>2024-07-03T08:54:59Z</time>
      </trkpt>
      <trkpt lat="48.22197" lon="4.69702">
        <ele>294</ele>
        <time>2024-07-03T08:55:04Z</time>
      </trkpt>
      <trkpt lat="48.22179" lon="4.69711">
        <ele>297</ele>
        <time>2024-07-03T08:55:07Z</time>
      </trkpt>
      <trkpt lat="48.2215" lon="4.69737">
        <ele>304</ele>
        <time>2024-07-03T08:55:13Z</time>
      </trkpt>
      <trkpt lat="48.221" lon="4.6987">
        <ele>310</ele>
        <time>2024-07-03T08:55:31Z</time>
      </trkpt>
      <trkpt lat="48.21939" lon="4.69876">
        <ele>311</ele>
        <time>2024-07-03T08:56:00Z</time>
      </trkpt>
    </trkseg>
  </trk>
</gpx>